sensor_id;sensor_type;location;lat;lon;timestamp;P1;durP1;ratioP1;P2;durP2;ratioP2
928;SDS011;451;47.988;7.842;2022-08-27T00:05:30;13.57;;;12.13;;
928;SDS011;451;47.988;7.842;2022-08-27T00:14:32;15.17;;;11.80;;
928;SDS011;451;47.988;7.842;2022-08-27T00:23:35;15.63;;;12.63;;
928;SDS011;451;47.988;7.842;2022-08-27T00:32:37;14.23;;;12.63;;
928;SDS011;451;47.988;7.842;2022-08-27T00:41:41;15.40;;;12.13;;
928;SDS011;451;47.988;7.842;2022-08-27T00:50:47;16.00;;;13.33;;
928;SDS011;451;47.988;7.842;2022-08-27T00:59:52;14.47;;;12.97;;
928;SDS011;451;47.988;7.842;2022-08-27T01:08:55;14.37;;;12.97;;
928;SDS011;451;47.988;7.842;2022-08-27T01:18:03;14.10;;;12.10;;
928;SDS011;451;47.988;7.842;2022-08-27T01:27:07;14.87;;;13.37;;
928;SDS011;451;47.988;7.842;2022-08-27T01:36:12;14.80;;;13.00;;
928;SDS011;451;47.988;7.842;2022-08-27T01:45:18;13.80;;;12.37;;
928;SDS011;451;47.988;7.842;2022-08-27T01:54:23;17.37;;;13.03;;
928;SDS011;451;47.988;7.842;2022-08-27T02:03:24;16.70;;;14.17;;
928;SDS011;451;47.988;7.842;2022-08-27T02:12:27;14.73;;;13.23;;
928;SDS011;451;47.988;7.842;2022-08-27T02:21:28;15.20;;;13.60;;
928;SDS011;451;47.988;7.842;2022-08-27T02:30:30;17.20;;;14.20;;
928;SDS011;451;47.988;7.842;2022-08-27T02:39:34;18.00;;;13.77;;
928;SDS011;451;47.988;7.842;2022-08-27T02:48:37;16.97;;;14.20;;
928;SDS011;451;47.988;7.842;2022-08-27T02:57:39;20.17;;;15.03;;
928;SDS011;451;47.988;7.842;2022-08-27T03:06:41;17.83;;;14.63;;
928;SDS011;451;47.988;7.842;2022-08-27T03:15:43;16.30;;;14.60;;
928;SDS011;451;47.988;7.842;2022-08-27T03:24:46;17.70;;;15.57;;
928;SDS011;451;47.988;7.842;2022-08-27T03:33:48;18.00;;;14.70;;
928;SDS011;451;47.988;7.842;2022-08-27T03:42:50;17.20;;;14.60;;
928;SDS011;451;47.988;7.842;2022-08-27T03:51:53;17.60;;;15.63;;
928;SDS011;451;47.988;7.842;2022-08-27T04:00:54;17.57;;;14.07;;
928;SDS011;451;47.988;7.842;2022-08-27T04:09:58;19.80;;;14.60;;
928;SDS011;451;47.988;7.842;2022-08-27T04:19:03;18.83;;;15.17;;
928;SDS011;451;47.988;7.842;2022-08-27T04:28:06;18.77;;;14.60;;
928;SDS011;451;47.988;7.842;2022-08-27T04:37:09;19.77;;;15.23;;
928;SDS011;451;47.988;7.842;2022-08-27T04:46:11;17.53;;;14.87;;
928;SDS011;451;47.988;7.842;2022-08-27T04:55:13;18.07;;;14.77;;
928;SDS011;451;47.988;7.842;2022-08-27T05:04:15;21.57;;;16.17;;
928;SDS011;451;47.988;7.842;2022-08-27T05:13:19;20.73;;;16.40;;
928;SDS011;451;47.988;7.842;2022-08-27T05:22:23;20.10;;;16.00;;
928;SDS011;451;47.988;7.842;2022-08-27T05:31:25;18.20;;;15.53;;
928;SDS011;451;47.988;7.842;2022-08-27T05:40:28;20.33;;;16.30;;
928;SDS011;451;47.988;7.842;2022-08-27T05:49:30;19.27;;;15.20;;
928;SDS011;451;47.988;7.842;2022-08-27T05:58:32;18.50;;;14.77;;
928;SDS011;451;47.988;7.842;2022-08-27T06:07:52;17.70;;;14.73;;
928;SDS011;451;47.988;7.842;2022-08-27T06:16:53;26.90;;;18.40;;
928;SDS011;451;47.988;7.842;2022-08-27T06:25:56;22.17;;;17.80;;
928;SDS011;451;47.988;7.842;2022-08-27T06:34:59;24.37;;;19.83;;
928;SDS011;451;47.988;7.842;2022-08-27T06:44:00;23.50;;;18.57;;
928;SDS011;451;47.988;7.842;2022-08-27T06:53:03;20.20;;;16.47;;
928;SDS011;451;47.988;7.842;2022-08-27T07:02:05;22.30;;;15.07;;
928;SDS011;451;47.988;7.842;2022-08-27T07:11:07;20.03;;;16.73;;
928;SDS011;451;47.988;7.842;2022-08-27T07:20:11;21.33;;;17.07;;
928;SDS011;451;47.988;7.842;2022-08-27T07:29:14;21.33;;;16.47;;
928;SDS011;451;47.988;7.842;2022-08-27T07:38:16;38.20;;;19.60;;
928;SDS011;451;47.988;7.842;2022-08-27T07:47:18;21.37;;;16.80;;
928;SDS011;451;47.988;7.842;2022-08-27T07:56:20;20.30;;;16.60;;
928;SDS011;451;47.988;7.842;2022-08-27T08:05:22;22.40;;;17.63;;
928;SDS011;451;47.988;7.842;2022-08-27T08:14:24;22.70;;;17.30;;
928;SDS011;451;47.988;7.842;2022-08-27T08:23:26;23.20;;;17.20;;
928;SDS011;451;47.988;7.842;2022-08-27T08:32:28;18.20;;;15.83;;
928;SDS011;451;47.988;7.842;2022-08-27T08:41:34;18.83;;;15.23;;
928;SDS011;451;47.988;7.842;2022-08-27T08:51:02;16.80;;;15.00;;
928;SDS011;451;47.988;7.842;2022-08-27T09:00:07;23.63;;;17.93;;
928;SDS011;451;47.988;7.842;2022-08-27T09:09:22;17.60;;;15.43;;
928;SDS011;451;47.988;7.842;2022-08-27T09:18:28;22.33;;;18.17;;
928;SDS011;451;47.988;7.842;2022-08-27T09:27:31;19.57;;;16.83;;
928;SDS011;451;47.988;7.842;2022-08-27T09:36:34;19.23;;;17.13;;
928;SDS011;451;47.988;7.842;2022-08-27T09:45:50;20.27;;;16.40;;
928;SDS011;451;47.988;7.842;2022-08-27T09:54:55;18.83;;;16.33;;
928;SDS011;451;47.988;7.842;2022-08-27T10:13:50;16.43;;;14.60;;
928;SDS011;451;47.988;7.842;2022-08-27T10:23:16;16.70;;;14.30;;
928;SDS011;451;47.988;7.842;2022-08-27T10:32:31;15.17;;;13.50;;
928;SDS011;451;47.988;7.842;2022-08-27T10:42:06;13.93;;;12.63;;
928;SDS011;451;47.988;7.842;2022-08-27T10:51:30;14.27;;;12.77;;
928;SDS011;451;47.988;7.842;2022-08-27T11:10:12;16.83;;;12.43;;
928;SDS011;451;47.988;7.842;2022-08-27T11:19:29;12.80;;;11.60;;
928;SDS011;451;47.988;7.842;2022-08-27T11:37:53;15.23;;;13.60;;
928;SDS011;451;47.988;7.842;2022-08-27T11:47:09;17.00;;;14.90;;
928;SDS011;451;47.988;7.842;2022-08-27T12:05:22;15.27;;;13.67;;
928;SDS011;451;47.988;7.842;2022-08-27T12:14:43;15.43;;;13.83;;
928;SDS011;451;47.988;7.842;2022-08-27T12:33:31;15.63;;;13.87;;
928;SDS011;451;47.988;7.842;2022-08-27T12:42:35;15.77;;;13.97;;
928;SDS011;451;47.988;7.842;2022-08-27T12:51:37;18.70;;;16.20;;
928;SDS011;451;47.988;7.842;2022-08-27T13:00:57;22.07;;;18.17;;
928;SDS011;451;47.988;7.842;2022-08-27T13:10:18;23.20;;;19.83;;
928;SDS011;451;47.988;7.842;2022-08-27T13:19:32;24.10;;;18.57;;
928;SDS011;451;47.988;7.842;2022-08-27T13:28:49;23.90;;;20.47;;
928;SDS011;451;47.988;7.842;2022-08-27T13:37:52;20.50;;;17.80;;
928;SDS011;451;47.988;7.842;2022-08-27T13:56:02;15.83;;;14.23;;
928;SDS011;451;47.988;7.842;2022-08-27T14:05:06;15.57;;;13.87;;
928;SDS011;451;47.988;7.842;2022-08-27T14:14:15;17.43;;;15.03;;
928;SDS011;451;47.988;7.842;2022-08-27T14:23:19;22.40;;;17.07;;
928;SDS011;451;47.988;7.842;2022-08-27T14:32:21;25.47;;;17.03;;
928;SDS011;451;47.988;7.842;2022-08-27T14:41:22;22.90;;;15.97;;
928;SDS011;451;47.988;7.842;2022-08-27T14:50:25;31.43;;;19.90;;
928;SDS011;451;47.988;7.842;2022-08-27T14:59:27;25.63;;;18.90;;
928;SDS011;451;47.988;7.842;2022-08-27T15:08:29;19.70;;;13.40;;
928;SDS011;451;47.988;7.842;2022-08-27T15:17:31;0.90;;;0.70;;
928;SDS011;451;47.988;7.842;2022-08-27T15:26:33;1.30;;;0.70;;
928;SDS011;451;47.988;7.842;2022-08-27T15:35:35;0.90;;;0.80;;
928;SDS011;451;47.988;7.842;2022-08-27T15:44:37;1.10;;;0.80;;
928;SDS011;451;47.988;7.842;2022-08-27T15:53:46;0.80;;;0.60;;
928;SDS011;451;47.988;7.842;2022-08-27T16:02:48;1.30;;;1.20;;
928;SDS011;451;47.988;7.842;2022-08-27T16:11:51;0.80;;;0.60;;
928;SDS011;451;47.988;7.842;2022-08-27T16:20:53;1.23;;;0.83;;
928;SDS011;451;47.988;7.842;2022-08-27T16:29:56;1.10;;;0.60;;
928;SDS011;451;47.988;7.842;2022-08-27T16:38:58;2.40;;;0.80;;
928;SDS011;451;47.988;7.842;2022-08-27T16:47:59;0.93;;;0.63;;
928;SDS011;451;47.988;7.842;2022-08-27T16:57:20;0.80;;;0.50;;
928;SDS011;451;47.988;7.842;2022-08-27T17:06:22;3.37;;;0.50;;
928;SDS011;451;47.988;7.842;2022-08-27T17:15:26;0.80;;;0.50;;
928;SDS011;451;47.988;7.842;2022-08-27T17:24:29;1.40;;;0.73;;
928;SDS011;451;47.988;7.842;2022-08-27T17:33:35;0.83;;;0.47;;
928;SDS011;451;47.988;7.842;2022-08-27T17:42:39;1.43;;;0.70;;
928;SDS011;451;47.988;7.842;2022-08-27T17:51:41;1.00;;;0.90;;
928;SDS011;451;47.988;7.842;2022-08-27T18:00:43;0.80;;;0.50;;
928;SDS011;451;47.988;7.842;2022-08-27T18:09:45;1.10;;;0.77;;
928;SDS011;451;47.988;7.842;2022-08-27T18:18:48;1.17;;;0.60;;
928;SDS011;451;47.988;7.842;2022-08-27T18:27:53;1.23;;;0.70;;
928;SDS011;451;47.988;7.842;2022-08-27T18:36:57;1.13;;;0.60;;
928;SDS011;451;47.988;7.842;2022-08-27T18:45:59;1.53;;;0.57;;
928;SDS011;451;47.988;7.842;2022-08-27T18:55:06;0.80;;;0.67;;
928;SDS011;451;47.988;7.842;2022-08-27T19:04:12;1.27;;;0.57;;
928;SDS011;451;47.988;7.842;2022-08-27T19:13:14;1.10;;;0.60;;
928;SDS011;451;47.988;7.842;2022-08-27T19:22:16;0.80;;;0.40;;
928;SDS011;451;47.988;7.842;2022-08-27T19:31:17;0.80;;;0.60;;
928;SDS011;451;47.988;7.842;2022-08-27T19:40:20;1.27;;;0.57;;
928;SDS011;451;47.988;7.842;2022-08-27T19:49:22;1.07;;;0.70;;
928;SDS011;451;47.988;7.842;2022-08-27T19:58:25;0.80;;;0.50;;
928;SDS011;451;47.988;7.842;2022-08-27T20:07:27;1.00;;;0.60;;
928;SDS011;451;47.988;7.842;2022-08-27T20:16:29;1.17;;;0.90;;
928;SDS011;451;47.988;7.842;2022-08-27T20:25:31;0.80;;;0.50;;
928;SDS011;451;47.988;7.842;2022-08-27T20:34:34;1.40;;;0.57;;
928;SDS011;451;47.988;7.842;2022-08-27T20:43:36;1.53;;;1.03;;
928;SDS011;451;47.988;7.842;2022-08-27T20:52:38;0.90;;;0.67;;
928;SDS011;451;47.988;7.842;2022-08-27T21:01:41;0.80;;;0.50;;
928;SDS011;451;47.988;7.842;2022-08-27T21:10:47;1.23;;;0.90;;
928;SDS011;451;47.988;7.842;2022-08-27T21:19:51;0.80;;;0.47;;
928;SDS011;451;47.988;7.842;2022-08-27T21:28:54;0.80;;;0.50;;
928;SDS011;451;47.988;7.842;2022-08-27T21:37:56;0.90;;;0.60;;
928;SDS011;451;47.988;7.842;2022-08-27T21:46:59;0.80;;;0.60;;
928;SDS011;451;47.988;7.842;2022-08-27T21:56:03;0.80;;;0.60;;
928;SDS011;451;47.988;7.842;2022-08-27T22:05:05;1.87;;;0.80;;
928;SDS011;451;47.988;7.842;2022-08-27T22:14:07;0.90;;;0.60;;
928;SDS011;451;47.988;7.842;2022-08-27T22:23:10;2.93;;;2.70;;
928;SDS011;451;47.988;7.842;2022-08-27T22:32:13;0.80;;;0.50;;
928;SDS011;451;47.988;7.842;2022-08-27T22:41:15;1.20;;;0.93;;
928;SDS011;451;47.988;7.842;2022-08-27T22:50:16;3.93;;;0.60;;
928;SDS011;451;47.988;7.842;2022-08-27T22:59:18;0.80;;;0.60;;
928;SDS011;451;47.988;7.842;2022-08-27T23:08:20;1.30;;;1.20;;
928;SDS011;451;47.988;7.842;2022-08-27T23:17:23;2.40;;;1.00;;
928;SDS011;451;47.988;7.842;2022-08-27T23:26:25;0.80;;;0.50;;
928;SDS011;451;47.988;7.842;2022-08-27T23:35:45;1.50;;;0.77;;
928;SDS011;451;47.988;7.842;2022-08-27T23:44:48;1.57;;;0.70;;
928;SDS011;451;47.988;7.842;2022-08-27T23:53:50;0.80;;;0.50;;
